Snapper Creek, Florida
Current Conditions -  °F | °C
As of 9:53 PM on Friday 28 Nov 2014 (Local Time) from KTMB Reporting Station
Clear Clear  
Wind Chill: 58°   Ceiling: Unl
Heat Index: 58°   Visibility: 10mi
Dew Point: 51°   Wind: 14mph
Humidity: 78%   Direction: 10°N
Pressure: 30.2"   Gusts: NA
Location:  25.6574°N, 80.359°W
Report Text: KTMB 290253Z 01012KT 10SM CLR 14/11 A3020 RMK AO2 SLP227 T01440106 51006
Loading
Personal Weather Stations






























Interactive Weather Map New forecast layout! Learn more

10-Day Weather Forecast

Advertisements
Track Severe Weather on mobile